Little River, SC

1:37 AM EDT on October 25, 2014 (GMT -0400)
Hidden Lakes Village | Change Station
CLOSE
Current Station
Personal Weather Station
Location: Little River, SC
Elevation: 43 ft
Nearby Weather Stations

Elev 43 ft 33.88 °N, 78.63 °W | Updated 4 seconds ago

Partly Cloudy
Partly Cloudy
53.1 °F
Feels Like 53.1 °F
N
0.0
Wind Variable Wind from WNW
Gusts 1.0 mph

Today
High -- | Low -- °F
--% Chance of Precip.
Yesterday
High -- | Low -- °F
Precip. -- in
7:27 AM 6:28 PM
New Moon, 2% visible
Pressure 29.99 in
Visibility 10.0 miles
Clouds Clear
Dew Point 50 °F
Humidity 90%
Rainfall 0.00 in
Snow Depth Not available.
UV 0 out of 12
Pollen 3.50 out of 12
Air Quality Not available.
Flu Activity Sporadic
METAR KCRE 250453Z AUTO 12003KT 10SM CLR 12/10 A2999 RMK AO1 SLP156 T01170100 402000083

More Conditions Fewer Conditions

Pressure 29.99 in
Visibility 10.0 miles
Clouds Clear
Dew Point 50 °F
Humidity 90%
Rainfall 0.00 in
Snow Depth Not available.
UV 0 out of 12
Pollen 3.50 out of 12
Air Quality Not available.
Flu Activity Sporadic
METAR KCRE 250453Z AUTO 12003KT 10SM CLR 12/10 A2999 RMK AO1 SLP156 T01170100 402000083

More Conditions Fewer Conditions

10-Day Weather Forecast

Almanac

Astronomy

Oct. 25, 2014 Rise Set
Actual Time 7:27 AM EDT 6:28 PM EDT
Civil Twilight 7:02 AM EDT 6:54 PM EDT
Nautical Twilight 6:32 AM EDT 7:23 PM EDT
Astronomical Twilight 6:03 AM EDT 7:52 PM EDT
Moon 9:01 AM EDT 7:54 PM EDT
Length of Visible Light 11h 52m
Length of Day
11h 01m
Tomorrow will be 1m 56s shorter.
New Moon, 2% of the Moon is Illuminated
Today
New Moon
Oct 30
First Quarter
Nov 6
Full
Nov 14
Last Quarter
Nov 22
New

Today's Extremes

State Highs State Lows

Community

WunderPhotos

Upload Photos

1,764,785 photos uploaded!

Nearby

Snow Depth

Station Depth Elevation
No new snow has been reported.

Earthquake Activity

City Distance Mag. Time & Date
No recent earthquake activity has been reported nearby.
Minimum magnitude displayed is 2.5.

Coastal Water Temperatures

Place Temperature
Springmaid Pier, SC 70.0 °F

Nearby Weather Stations